createdAt,value
2017-06-11T00:00:30.247Z,73.98
2017-06-11T00:03:00.027Z,74.02
2017-06-11T00:05:29.762Z,74.04
2017-06-11T00:07:59.469Z,74.32
2017-06-11T00:10:29.152Z,74.46
2017-06-11T00:12:58.846Z,75.18
2017-06-11T00:15:28.504Z,74.64
2017-06-11T00:17:58.250Z,74.40
2017-06-11T00:20:27.979Z,74.36
2017-06-11T00:22:57.680Z,74.54
2017-06-11T00:25:27.364Z,75.64
2017-06-11T00:27:57.038Z,75.12
2017-06-11T00:30:26.731Z,75.35
2017-06-11T00:32:56.389Z,75.56
2017-06-11T00:35:26.103Z,75.90
2017-06-11T00:37:55.791Z,75.80
2017-06-11T00:40:26.278Z,75.84
2017-06-11T00:42:56.019Z,75.52
2017-06-11T00:45:25.685Z,75.79
2017-06-11T00:47:55.446Z,75.68
2017-06-11T00:50:25.231Z,75.75
2017-06-11T00:52:54.903Z,76.01
2017-06-11T00:55:25.493Z,76.07
2017-06-11T00:57:55.162Z,75.77
2017-06-11T01:00:24.852Z,75.73
2017-06-11T01:02:54.538Z,76.42
2017-06-11T01:05:24.240Z,76.54
2017-06-11T01:07:53.963Z,76.71
2017-06-11T01:10:23.680Z,76.05
2017-06-11T01:12:53.394Z,76.59
2017-06-11T01:15:23.799Z,75.99
2017-06-11T01:17:55.930Z,76.04
2017-06-11T01:20:30.123Z,76.25
2017-06-11T01:23:01.453Z,76.65
2017-06-11T01:25:33.016Z,76.57
2017-06-11T01:28:05.233Z,76.74
2017-06-11T01:30:37.345Z,76.73
2017-06-11T01:33:09.748Z,76.59
2017-06-11T01:35:44.582Z,76.75
2017-06-11T01:38:15.955Z,77.02
2017-06-11T01:40:46.725Z,77.04
2017-06-11T01:43:17.894Z,77.10
2017-06-11T01:45:50.259Z,76.70
2017-06-11T01:48:24.381Z,76.76
2017-06-11T01:50:55.805Z,77.05
2017-06-11T01:53:26.926Z,77.26
2017-06-11T01:55:56.600Z,77.05
2017-06-11T01:58:26.270Z,76.50
2017-06-11T02:00:56.554Z,76.83
2017-06-11T02:03:26.231Z,76.95
2017-06-11T02:05:55.970Z,76.86
2017-06-11T02:08:25.683Z,76.74
2017-06-11T02:10:55.363Z,76.92
2017-06-11T02:13:25.086Z,77.37
2017-06-11T02:15:57.085Z,77.07
2017-06-11T02:18:28.273Z,76.97
2017-06-11T02:20:58.022Z,77.39
2017-06-11T02:23:27.691Z,77.64
2017-06-11T02:25:57.403Z,77.32
2017-06-11T02:28:27.070Z,77.65
2017-06-11T02:30:56.794Z,77.51
2017-06-11T02:33:26.461Z,77.42
2017-06-11T02:35:56.214Z,77.42
2017-06-11T02:38:26.517Z,77.23
2017-06-11T02:40:56.646Z,76.89
2017-06-11T02:43:28.378Z,76.83
2017-06-11T02:45:59.005Z,77.07
2017-06-11T02:48:29.941Z,77.57
2017-06-11T02:51:00.825Z,77.66
2017-06-11T02:53:31.116Z,77.61
2017-06-11T02:56:02.033Z,78.03
2017-06-11T02:58:32.654Z,78.22
2017-06-11T03:01:03.667Z,77.98
2017-06-11T03:03:36.803Z,77.88
2017-06-11T03:06:09.623Z,77.86
2017-06-11T03:08:43.014Z,77.91
2017-06-11T03:11:13.550Z,77.60
2017-06-11T03:13:44.575Z,77.93
2017-06-11T03:16:16.844Z,77.17
2017-06-11T03:18:49.462Z,77.40
2017-06-11T03:21:20.218Z,77.41
2017-06-11T03:23:51.474Z,76.89
2017-06-11T03:26:21.707Z,76.96
2017-06-11T03:28:51.481Z,77.62
2017-06-11T03:31:22.693Z,77.36
2017-06-11T03:33:52.780Z,77.08
2017-06-11T03:36:22.965Z,77.79
2017-06-11T03:38:54.449Z,78.18
2017-06-11T03:41:25.337Z,77.98
2017-06-11T03:43:56.928Z,78.09
2017-06-11T03:46:30.038Z,77.91
2017-06-11T03:49:01.443Z,78.01
2017-06-11T03:51:32.452Z,78.03
2017-06-11T03:54:04.222Z,78.23
2017-06-11T03:56:36.690Z,78.04
2017-06-11T03:59:07.303Z,77.94
2017-06-11T04:01:38.966Z,77.61
2017-06-11T04:04:11.772Z,76.91
2017-06-11T04:06:43.510Z,76.63
2017-06-11T04:09:14.014Z,76.08
2017-06-11T04:11:44.966Z,75.80
2017-06-11T04:14:15.775Z,75.16
2017-06-11T04:16:49.109Z,74.60
2017-06-11T04:19:20.604Z,74.81
2017-06-11T04:21:54.015Z,74.10
2017-06-11T04:24:24.200Z,73.82
2017-06-11T04:26:54.944Z,73.04
2017-06-11T04:29:25.001Z,72.78
2017-06-11T04:31:56.174Z,72.71
2017-06-11T04:34:26.866Z,71.72
2017-06-11T04:36:57.541Z,71.93
2017-06-11T04:39:28.155Z,70.74
2017-06-11T04:41:57.840Z,69.82
2017-06-11T04:44:27.543Z,69.31
2017-06-11T04:46:57.236Z,68.91
2017-06-11T04:49:26.911Z,69.43
2017-06-11T04:51:56.601Z,68.47
2017-06-11T04:54:26.294Z,67.96
2017-06-11T04:56:56.009Z,67.63
2017-06-11T04:59:25.674Z,67.92
2017-06-11T05:01:55.343Z,67.51
2017-06-11T05:04:25.076Z,67.47
2017-06-11T05:06:54.858Z,68.24
2017-06-11T05:09:24.608Z,67.49
2017-06-11T05:11:54.287Z,67.04
2017-06-11T05:14:24.003Z,67.42
2017-06-11T05:16:53.675Z,67.35
2017-06-11T05:19:23.339Z,67.83
2017-06-11T05:21:53.039Z,67.80
2017-06-11T05:24:22.771Z,67.78
2017-06-11T05:26:52.493Z,66.79
2017-06-11T05:29:22.863Z,67.16
2017-06-11T05:31:52.586Z,68.22
2017-06-11T05:34:22.250Z,68.17
2017-06-11T05:36:51.927Z,67.90
2017-06-11T05:39:22.554Z,67.50
2017-06-11T05:41:52.230Z,67.71
2017-06-11T05:44:21.943Z,67.66
2017-06-11T05:46:51.610Z,67.77
2017-06-11T05:49:21.339Z,67.62
2017-06-11T05:51:51.038Z,67.29
2017-06-11T05:54:20.775Z,67.51
2017-06-11T05:56:50.474Z,67.30
2017-06-11T05:59:20.147Z,67.10
2017-06-11T06:01:49.851Z,66.26
2017-06-11T06:04:19.525Z,65.82
2017-06-11T06:06:49.254Z,65.74
2017-06-11T06:09:18.922Z,66.06
2017-06-11T06:11:48.585Z,66.51
2017-06-11T06:14:18.454Z,65.99
2017-06-11T06:16:48.118Z,65.43
2017-06-11T06:19:18.646Z,66.30
2017-06-11T06:21:48.319Z,66.18
2017-06-11T06:24:18.043Z,66.31
2017-06-11T06:26:47.712Z,65.48
2017-06-11T06:29:17.374Z,64.69
2017-06-11T06:31:46.875Z,63.93
2017-06-11T06:34:16.591Z,63.23
2017-06-11T06:36:46.304Z,63.31
2017-06-11T06:39:16.003Z,63.59
2017-06-11T06:41:45.716Z,63.81
2017-06-11T06:44:15.395Z,63.49
2017-06-11T06:46:45.164Z,63.04
2017-06-11T06:49:14.821Z,61.53
2017-06-11T06:51:44.519Z,61.34
2017-06-11T06:54:14.225Z,61.32
2017-06-11T06:56:43.930Z,59.70
2017-06-11T06:59:13.618Z,59.86
2017-06-11T07:01:43.287Z,60.08
2017-06-11T07:04:13.019Z,59.63
2017-06-11T07:06:42.684Z,59.20
2017-06-11T07:09:12.360Z,58.45
2017-06-11T07:11:42.061Z,57.82
2017-06-11T07:14:11.723Z,57.67
2017-06-11T07:16:41.420Z,57.66
2017-06-11T07:19:11.085Z,57.39
2017-06-11T07:21:40.895Z,56.07
2017-06-11T07:24:10.560Z,54.10
2017-06-11T07:26:40.261Z,54.22
2017-06-11T07:29:09.968Z,53.95
2017-06-11T07:31:39.810Z,53.13
2017-06-11T07:34:09.510Z,52.18
2017-06-11T07:36:39.181Z,51.77
2017-06-11T07:39:08.922Z,51.66
2017-06-11T07:41:38.599Z,52.38
2017-06-11T07:44:08.266Z,51.67
2017-06-11T07:46:37.967Z,51.19
2017-06-11T07:49:07.627Z,50.36
2017-06-11T07:51:37.330Z,50.47
2017-06-11T07:54:06.873Z,50.12
2017-06-11T07:56:36.626Z,50.03
2017-06-11T07:59:06.419Z,49.44
2017-06-11T08:01:36.095Z,49.29
2017-06-11T08:04:05.887Z,49.20
2017-06-11T08:06:35.599Z,49.37
2017-06-11T08:09:04.610Z,48.10
2017-06-11T08:11:34.473Z,47.78
2017-06-11T08:14:04.181Z,49.21
2017-06-11T08:16:33.849Z,48.81
2017-06-11T08:19:03.542Z,48.82
2017-06-11T08:21:33.288Z,48.13
2017-06-11T08:24:02.972Z,47.51
2017-06-11T08:26:32.713Z,48.56
2017-06-11T08:29:02.385Z,48.37
2017-06-11T08:31:32.198Z,48.40
2017-06-11T08:34:01.877Z,47.87
2017-06-11T08:36:31.584Z,47.17
2017-06-11T08:39:01.474Z,46.88
2017-06-11T08:41:31.189Z,48.14
2017-06-11T08:44:01.090Z,47.20
2017-06-11T08:46:30.763Z,45.79
2017-06-11T08:49:01.245Z,45.74
2017-06-11T08:51:30.930Z,45.87
2017-06-11T08:54:00.800Z,45.98
2017-06-11T08:56:30.485Z,45.98
2017-06-11T08:59:00.245Z,44.31
2017-06-11T09:01:29.933Z,44.96
2017-06-11T09:03:59.610Z,45.12
2017-06-11T09:06:29.326Z,44.65
2017-06-11T09:08:59.094Z,43.20
2017-06-11T09:11:28.770Z,42.27
2017-06-11T09:13:58.490Z,41.94
2017-06-11T09:16:28.160Z,42.01
2017-06-11T09:18:57.853Z,42.48
2017-06-11T09:21:27.556Z,42.62
2017-06-11T09:23:57.305Z,41.62
2017-06-11T09:26:26.979Z,41.46
2017-06-11T09:28:56.645Z,41.15
2017-06-11T09:31:26.355Z,41.30
2017-06-11T09:33:56.022Z,40.77
2017-06-11T09:36:25.725Z,39.90
2017-06-11T09:38:55.416Z,40.34
2017-06-11T09:41:25.126Z,40.33
2017-06-11T09:43:54.793Z,40.47
2017-06-11T09:46:24.466Z,40.00
2017-06-11T09:48:54.146Z,40.28
2017-06-11T09:51:23.833Z,40.31
2017-06-11T09:53:53.590Z,41.03
2017-06-11T09:56:23.597Z,40.53
2017-06-11T09:58:53.703Z,39.20
2017-06-11T10:01:24.957Z,39.34
2017-06-11T10:03:58.035Z,38.83
2017-06-11T10:06:28.990Z,39.05
2017-06-11T10:08:59.429Z,38.78
2017-06-11T10:11:29.818Z,39.17
2017-06-11T10:14:00.074Z,39.21
2017-06-11T10:16:32.418Z,40.49
2017-06-11T10:19:02.883Z,42.03
2017-06-11T10:21:34.142Z,41.47
2017-06-11T10:24:06.148Z,40.53
2017-06-11T10:26:37.775Z,40.15
2017-06-11T10:29:09.458Z,39.75
2017-06-11T10:31:41.355Z,39.81
2017-06-11T10:34:13.305Z,39.55
2017-06-11T10:36:46.694Z,39.53
2017-06-11T10:39:19.357Z,39.61
2017-06-11T10:41:49.744Z,38.99
2017-06-11T10:44:21.572Z,39.89
2017-06-11T10:46:54.679Z,39.83
2017-06-11T10:49:27.676Z,39.85
2017-06-11T10:52:00.034Z,39.36
2017-06-11T10:54:31.680Z,38.86
2017-06-11T10:57:03.210Z,39.24
2017-06-11T10:59:35.765Z,39.53
2017-06-11T11:02:07.119Z,39.11
2017-06-11T11:04:38.535Z,38.62
2017-06-11T11:07:10.208Z,38.85
2017-06-11T11:09:43.227Z,38.97
2017-06-11T11:12:14.639Z,37.97
2017-06-11T11:14:45.441Z,38.49
2017-06-11T11:17:15.853Z,39.04
2017-06-11T11:19:47.445Z,40.30
2017-06-11T11:22:17.650Z,41.21
2017-06-11T11:24:48.690Z,41.11
2017-06-11T11:27:19.472Z,40.08
2017-06-11T11:29:50.601Z,39.18
2017-06-11T11:32:21.811Z,39.29
2017-06-11T11:34:52.924Z,38.78
2017-06-11T11:37:23.708Z,40.10
2017-06-11T11:39:54.566Z,39.59
2017-06-11T11:42:25.734Z,40.10
2017-06-11T11:44:55.938Z,40.84
2017-06-11T11:47:26.058Z,39.71
2017-06-11T11:49:56.565Z,39.36
2017-06-11T11:52:27.663Z,39.02
2017-06-11T11:54:58.610Z,38.43
2017-06-11T11:57:29.191Z,38.50
2017-06-11T12:00:00.245Z,38.98
2017-06-11T12:02:30.749Z,39.60
2017-06-11T12:05:01.380Z,38.24
2017-06-11T12:07:32.430Z,38.76
2017-06-11T12:10:03.733Z,37.64
2017-06-11T12:12:33.640Z,38.86
2017-06-11T12:15:03.457Z,38.49
2017-06-11T12:17:33.600Z,38.04
2017-06-11T12:20:03.319Z,37.75
2017-06-11T12:22:33.157Z,37.76
2017-06-11T12:25:02.855Z,37.90
2017-06-11T12:27:32.686Z,38.72
2017-06-11T12:30:03.033Z,38.40
2017-06-11T12:32:32.825Z,38.17
2017-06-11T12:35:02.506Z,37.77
2017-06-11T12:37:32.339Z,37.91
2017-06-11T12:40:02.192Z,37.71
2017-06-11T12:42:31.924Z,38.68
2017-06-11T12:45:01.770Z,38.61
2017-06-11T12:47:31.534Z,37.97
2017-06-11T12:50:01.321Z,38.09
2017-06-11T12:52:30.994Z,38.71
2017-06-11T12:55:00.706Z,38.36
2017-06-11T12:57:30.411Z,38.49
2017-06-11T13:00:00.168Z,38.51
2017-06-11T13:02:29.839Z,37.69
2017-06-11T13:04:59.577Z,37.59
2017-06-11T13:07:29.341Z,37.07
2017-06-11T13:09:59.095Z,37.51
2017-06-11T13:12:28.779Z,37.72
2017-06-11T13:14:58.460Z,37.42
2017-06-11T13:17:28.216Z,37.19
2017-06-11T13:19:57.923Z,37.38
2017-06-11T13:22:27.617Z,39.60
2017-06-11T13:24:57.293Z,39.86
2017-06-11T13:27:27.032Z,39.75
2017-06-11T13:29:56.737Z,40.00
2017-06-11T13:32:26.455Z,39.69
2017-06-11T13:34:56.184Z,40.10
2017-06-11T13:37:25.858Z,40.16
2017-06-11T13:39:55.574Z,40.38
2017-06-11T13:42:25.266Z,41.07
2017-06-11T13:44:55.021Z,41.97
2017-06-11T13:47:25.553Z,40.85
2017-06-11T13:49:55.276Z,40.65
2017-06-11T13:52:24.986Z,41.16
2017-06-11T13:54:54.695Z,41.17
2017-06-11T13:57:24.417Z,41.04
2017-06-11T13:59:54.090Z,41.55
2017-06-11T14:02:23.880Z,39.91
2017-06-11T14:04:53.559Z,40.68
2017-06-11T14:07:23.249Z,41.04
2017-06-11T14:09:52.805Z,40.87
2017-06-11T14:12:23.224Z,40.69
2017-06-11T14:14:54.221Z,41.63
2017-06-11T14:17:24.885Z,41.28
2017-06-11T14:19:55.176Z,41.22
2017-06-11T14:22:24.678Z,41.39
2017-06-11T14:24:54.161Z,41.39
2017-06-11T14:27:23.724Z,40.51
2017-06-11T14:29:53.313Z,40.73
2017-06-11T14:32:23.024Z,40.98
2017-06-11T14:34:52.709Z,41.64
2017-06-11T14:37:22.423Z,41.95
2017-06-11T14:39:52.142Z,41.42
2017-06-11T14:42:21.890Z,41.83
2017-06-11T14:44:51.581Z,41.32
2017-06-11T14:47:21.250Z,40.22
2017-06-11T14:49:50.946Z,39.44
2017-06-11T14:52:20.631Z,39.13
2017-06-11T14:54:50.365Z,38.88
2017-06-11T14:57:20.039Z,39.74
2017-06-11T14:59:49.772Z,39.68
2017-06-11T15:02:19.525Z,40.22
2017-06-11T15:04:49.417Z,41.36
2017-06-11T15:07:20.883Z,42.45
2017-06-11T15:09:50.552Z,42.14
2017-06-11T15:12:21.978Z,42.14
2017-06-11T15:14:52.899Z,42.61
2017-06-11T15:17:23.908Z,42.66
2017-06-11T15:19:54.887Z,42.24
2017-06-11T15:22:25.795Z,43.23
2017-06-11T15:24:56.621Z,42.75
2017-06-11T15:27:27.780Z,42.73
2017-06-11T15:29:58.654Z,42.92
2017-06-11T15:32:32.303Z,42.95
2017-06-11T15:35:04.138Z,42.63
2017-06-11T15:37:35.933Z,42.17
2017-06-11T15:40:06.733Z,41.56
2017-06-11T15:42:38.540Z,41.62
2017-06-11T15:45:09.987Z,41.99
2017-06-11T15:47:43.342Z,42.11
2017-06-11T15:50:16.931Z,42.86
2017-06-11T15:52:52.224Z,42.92
2017-06-11T15:55:27.012Z,41.98
2017-06-11T15:57:59.816Z,42.44
2017-06-11T16:00:32.431Z,42.78
2017-06-11T16:03:04.048Z,42.61
2017-06-11T16:05:36.122Z,43.24
2017-06-11T16:08:09.018Z,43.87
2017-06-11T16:10:40.699Z,44.03
2017-06-11T16:13:13.284Z,43.18
2017-06-11T16:15:43.937Z,43.00
2017-06-11T16:18:15.431Z,42.79
2017-06-11T16:20:46.794Z,43.24
2017-06-11T16:23:17.817Z,43.20
2017-06-11T16:25:48.495Z,41.40
2017-06-11T16:28:19.654Z,41.85
2017-06-11T16:30:50.472Z,41.98
2017-06-11T16:33:21.148Z,41.23
2017-06-11T16:35:52.010Z,41.79
2017-06-11T16:38:22.822Z,41.80
2017-06-11T16:40:53.346Z,42.13
2017-06-11T16:43:24.679Z,42.21
2017-06-11T16:45:55.540Z,42.71
2017-06-11T16:48:26.349Z,42.58
2017-06-11T16:50:56.618Z,41.81
2017-06-11T16:53:27.400Z,42.37
2017-06-11T16:55:58.338Z,43.11
2017-06-11T16:58:29.466Z,44.66
2017-06-11T17:01:01.048Z,43.90
2017-06-11T17:03:32.680Z,43.40
2017-06-11T17:06:03.617Z,42.89
2017-06-11T17:08:34.560Z,44.15
2017-06-11T17:11:05.394Z,44.27
2017-06-11T17:13:36.246Z,44.20
2017-06-11T17:16:07.215Z,44.79
2017-06-11T17:18:38.168Z,44.54
2017-06-11T17:21:09.693Z,45.10
2017-06-11T17:23:41.859Z,45.12
2017-06-11T17:26:13.612Z,45.43
2017-06-11T17:28:45.181Z,44.60
2017-06-11T17:31:16.095Z,45.02
2017-06-11T17:33:46.257Z,45.52
2017-06-11T17:36:15.935Z,45.82
2017-06-11T17:38:45.602Z,46.25
2017-06-11T17:41:15.437Z,46.90
2017-06-11T17:43:45.109Z,49.07
2017-06-11T17:46:14.764Z,51.12
2017-06-11T17:48:44.525Z,51.47
2017-06-11T17:51:14.229Z,51.93
2017-06-11T17:53:44.004Z,52.76
2017-06-11T17:56:13.771Z,54.13
2017-06-11T17:58:43.470Z,54.31
2017-06-11T18:01:13.177Z,55.10
2017-06-11T18:03:43.024Z,54.82
2017-06-11T18:06:12.707Z,55.05
2017-06-11T18:08:42.391Z,55.83
2017-06-11T18:11:12.094Z,56.75
2017-06-11T18:13:41.777Z,57.45
2017-06-11T18:16:11.539Z,57.50
2017-06-11T18:18:41.258Z,58.06
2017-06-11T18:21:11.007Z,58.72
2017-06-11T18:23:40.718Z,58.42
2017-06-11T18:26:10.407Z,55.29
2017-06-11T18:28:40.151Z,56.84
2017-06-11T18:31:09.835Z,57.73
2017-06-11T18:33:39.577Z,57.37
2017-06-11T18:36:09.289Z,58.02
2017-06-11T18:38:38.963Z,57.67
2017-06-11T18:41:09.481Z,57.37
2017-06-11T18:43:40.650Z,56.56
2017-06-11T18:46:12.791Z,56.52
2017-06-11T18:48:44.299Z,57.21
2017-06-11T18:51:14.980Z,57.32
2017-06-11T18:53:44.858Z,57.50
2017-06-11T18:56:14.606Z,57.77
2017-06-11T18:58:44.306Z,58.29
2017-06-11T19:01:13.974Z,58.66
2017-06-11T19:03:43.741Z,58.96
2017-06-11T19:06:13.418Z,58.99
2017-06-11T19:08:43.126Z,59.20
2017-06-11T19:11:12.841Z,59.78
2017-06-11T19:13:42.535Z,60.22
2017-06-11T19:16:12.287Z,60.40
2017-06-11T19:18:41.997Z,61.00
2017-06-11T19:21:13.180Z,61.33
2017-06-11T19:23:42.909Z,61.43
2017-06-11T19:26:12.617Z,61.22
2017-06-11T19:28:42.346Z,60.59
2017-06-11T19:31:12.050Z,60.04
2017-06-11T19:33:41.782Z,60.31
2017-06-11T19:36:11.477Z,60.25
2017-06-11T19:38:41.170Z,60.19
2017-06-11T19:41:10.875Z,60.74
2017-06-11T19:43:40.387Z,61.02
2017-06-11T19:46:10.964Z,61.23
2017-06-11T19:48:40.678Z,61.38
2017-06-11T19:51:10.374Z,62.08
2017-06-11T19:53:40.178Z,62.61
2017-06-11T19:56:09.856Z,62.70
2017-06-11T19:58:39.593Z,62.30
2017-06-11T20:01:09.380Z,62.06
2017-06-11T20:03:39.922Z,62.28
2017-06-11T20:06:09.647Z,63.55
2017-06-11T20:08:40.984Z,64.05
2017-06-11T20:11:10.715Z,63.48
2017-06-11T20:13:40.386Z,62.65
2017-06-11T20:16:10.062Z,62.22
2017-06-11T20:18:40.631Z,61.86
2017-06-11T20:21:10.314Z,61.87
2017-06-11T20:23:40.207Z,62.52
2017-06-11T20:26:09.890Z,63.06
2017-06-11T20:28:39.589Z,63.41
2017-06-11T20:31:09.313Z,63.64
2017-06-11T20:33:38.981Z,63.56
2017-06-11T20:36:08.713Z,62.91
2017-06-11T20:38:38.441Z,62.62
2017-06-11T20:41:08.126Z,62.10
2017-06-11T20:43:37.853Z,62.19
2017-06-11T20:46:08.153Z,62.49
2017-06-11T20:48:37.913Z,62.21
2017-06-11T20:51:07.618Z,62.22
2017-06-11T20:53:38.059Z,62.10
2017-06-11T20:56:07.860Z,61.38
2017-06-11T20:58:37.553Z,60.72
2017-06-11T21:01:07.298Z,60.67
2017-06-11T21:03:36.987Z,60.79
2017-06-11T21:06:06.832Z,61.42
2017-06-11T21:08:36.610Z,62.30
2017-06-11T21:11:06.294Z,62.59
2017-06-11T21:13:36.181Z,63.92
2017-06-11T21:16:05.865Z,64.00
2017-06-11T21:18:35.650Z,63.98
2017-06-11T21:21:05.344Z,64.41
2017-06-11T21:23:35.871Z,64.91
2017-06-11T21:26:05.598Z,64.70
2017-06-11T21:28:35.280Z,63.93
2017-06-11T21:31:04.974Z,63.50
2017-06-11T21:33:34.678Z,63.47
2017-06-11T21:36:04.349Z,63.02
2017-06-11T21:38:34.097Z,63.45
2017-06-11T21:41:03.779Z,63.68
2017-06-11T21:43:33.522Z,63.71
2017-06-11T21:46:03.242Z,63.54
2017-06-11T21:48:32.932Z,63.79
2017-06-11T21:51:02.822Z,64.40
2017-06-11T21:53:32.503Z,64.40
2017-06-11T21:56:02.354Z,64.12
2017-06-11T21:58:33.153Z,64.18
2017-06-11T22:01:02.855Z,65.05
2017-06-11T22:03:33.163Z,64.91
2017-06-11T22:06:02.917Z,64.33
2017-06-11T22:08:32.664Z,64.22
2017-06-11T22:11:02.482Z,65.24
2017-06-11T22:13:32.154Z,64.73
2017-06-11T22:16:02.034Z,64.17
2017-06-11T22:18:31.718Z,65.07
2017-06-11T22:21:01.465Z,65.30
2017-06-11T22:23:31.186Z,65.43
2017-06-11T22:26:00.869Z,67.71
2017-06-11T22:28:30.620Z,67.86
2017-06-11T22:31:00.293Z,68.01
2017-06-11T22:33:29.978Z,68.38
2017-06-11T22:35:59.781Z,68.04
2017-06-11T22:38:29.477Z,67.96
2017-06-11T22:40:59.192Z,68.41
2017-06-11T22:43:28.890Z,69.64
2017-06-11T22:45:58.573Z,72.12
2017-06-11T22:48:28.290Z,72.10
2017-06-11T22:50:57.963Z,74.54
2017-06-11T22:53:27.647Z,75.11
2017-06-11T22:55:57.327Z,73.42
2017-06-11T22:58:27.038Z,73.46
2017-06-11T23:00:56.790Z,74.59
2017-06-11T23:03:26.477Z,75.39
2017-06-11T23:05:56.216Z,75.27
2017-06-11T23:08:25.922Z,74.38
2017-06-11T23:10:55.630Z,76.42
2017-06-11T23:13:25.335Z,76.12
2017-06-11T23:15:55.022Z,76.64
2017-06-11T23:18:24.759Z,77.34
2017-06-11T23:20:54.447Z,77.75
2017-06-11T23:23:24.132Z,77.53
2017-06-11T23:25:56.778Z,77.03
2017-06-11T23:28:26.485Z,78.32
2017-06-11T23:30:56.230Z,79.11
2017-06-11T23:33:25.900Z,78.69
2017-06-11T23:35:55.590Z,78.77
2017-06-11T23:38:25.299Z,78.21
2017-06-11T23:40:54.951Z,77.87
2017-06-11T23:43:24.669Z,78.21
2017-06-11T23:45:54.370Z,77.83
2017-06-11T23:48:24.042Z,77.97
2017-06-11T23:50:53.772Z,77.97
2017-06-11T23:53:23.445Z,77.84
2017-06-11T23:55:53.193Z,77.96
2017-06-11T23:58:22.870Z,77.70
